createdAt,value
2023-02-08T00:01:19.137Z,99719.97
2023-02-08T00:03:47.580Z,99715.69
2023-02-08T00:06:17.565Z,99719.09
2023-02-08T00:08:46.333Z,99719.91
2023-02-08T00:11:14.614Z,99718.84
2023-02-08T00:13:43.025Z,99718.06
2023-02-08T00:16:12.422Z,99718.06
2023-02-08T00:18:40.723Z,99717.19
2023-02-08T00:21:11.070Z,99717.25
2023-02-08T00:23:40.754Z,99718.94
2023-02-08T00:26:09.566Z,99720.72
2023-02-08T00:28:38.267Z,99724.91
2023-02-08T00:31:07.071Z,99721.44
2023-02-08T00:33:36.021Z,99722.25
2023-02-08T00:36:06.401Z,99707.66
2023-02-08T00:38:34.903Z,99718.63
2023-02-08T00:41:04.882Z,99715.00
2023-02-08T00:43:33.312Z,99720.09
2023-02-08T00:46:01.400Z,99715.66
2023-02-08T00:48:30.002Z,99733.56
2023-02-08T00:51:00.041Z,99735.97
2023-02-08T00:53:28.193Z,99739.59
2023-02-08T00:55:57.574Z,99737.69
2023-02-08T00:58:28.200Z,99735.19
2023-02-08T01:00:56.620Z,99737.75
2023-02-08T01:03:25.460Z,99732.59
2023-02-08T01:05:53.924Z,99739.41
2023-02-08T01:08:22.391Z,99732.50
2023-02-08T01:10:50.487Z,99733.31
2023-02-08T01:13:18.769Z,99724.22
2023-02-08T01:15:48.283Z,99729.03
2023-02-08T01:18:16.844Z,99721.41
2023-02-08T01:20:44.919Z,99720.72
2023-02-08T01:23:12.977Z,99724.88
2023-02-08T01:25:41.920Z,99719.59
2023-02-08T01:28:10.207Z,99727.25
2023-02-08T01:30:39.288Z,99729.75
2023-02-08T01:33:08.990Z,99726.22
2023-02-08T01:35:37.100Z,99721.06
2023-02-08T01:38:05.903Z,99718.41
2023-02-08T01:40:33.965Z,99714.88
2023-02-08T01:43:02.038Z,99714.78
2023-02-08T01:45:32.011Z,99706.81
2023-02-08T01:48:05.951Z,99706.13
2023-02-08T01:50:43.000Z,99709.31
2023-02-08T01:53:11.939Z,99704.09
2023-02-08T01:55:44.308Z,99697.94
2023-02-08T01:58:15.651Z,99696.13
2023-02-08T02:00:44.015Z,99706.75
2023-02-08T02:03:14.589Z,99708.50
2023-02-08T02:05:46.719Z,99700.44
2023-02-08T02:08:15.108Z,99716.59
2023-02-08T02:10:44.916Z,99709.72
2023-02-08T02:13:15.563Z,99724.31
2023-02-08T02:15:46.130Z,99721.88
2023-02-08T02:18:19.158Z,99717.41
2023-02-08T02:21:04.343Z,99719.75
2023-02-08T02:24:06.828Z,99724.03
2023-02-08T02:27:13.903Z,99720.56
2023-02-08T02:30:24.761Z,99718.22
2023-02-08T02:33:06.903Z,99720.13
2023-02-08T02:35:45.197Z,99728.50
2023-02-08T02:38:21.857Z,99727.50
2023-02-08T02:41:08.108Z,99722.44
2023-02-08T02:43:46.487Z,99728.66
2023-02-08T02:46:26.043Z,99733.00
2023-02-08T02:49:03.462Z,99729.34
2023-02-08T02:51:41.253Z,99734.53
2023-02-08T02:54:15.720Z,99732.50
2023-02-08T02:56:46.885Z,99734.16
2023-02-08T02:59:17.099Z,99740.19
2023-02-08T03:01:47.536Z,99735.03
2023-02-08T03:04:19.191Z,99730.75
2023-02-08T03:07:01.766Z,99727.81
2023-02-08T03:09:46.849Z,99729.47
2023-02-08T03:12:29.283Z,99735.19
2023-02-08T03:15:06.427Z,99743.16
2023-02-08T03:17:51.349Z,99754.09
2023-02-08T03:20:26.159Z,99754.94
2023-02-08T03:23:02.293Z,99745.50
2023-02-08T03:25:37.910Z,99753.16
2023-02-08T03:28:12.974Z,99758.97
2023-02-08T03:30:51.392Z,99765.88
2023-02-08T03:33:26.863Z,99770.06
2023-02-08T03:36:03.296Z,99772.44
2023-02-08T03:38:35.819Z,99772.50
2023-02-08T03:41:07.751Z,99769.06
2023-02-08T03:43:41.336Z,99770.91
2023-02-08T03:46:13.122Z,99775.97
2023-02-08T03:48:47.545Z,99772.72
2023-02-08T03:51:17.960Z,99762.00
2023-02-08T03:53:48.172Z,99767.91
2023-02-08T03:56:21.998Z,99771.72
2023-02-08T03:58:57.626Z,99777.50
2023-02-08T04:01:31.599Z,99766.41
2023-02-08T04:04:01.129Z,99753.53
2023-02-08T04:06:30.984Z,99753.41
2023-02-08T04:08:59.151Z,99762.06
2023-02-08T04:11:27.229Z,99776.78
2023-02-08T04:13:55.355Z,99757.59
2023-02-08T04:16:23.477Z,99762.00
2023-02-08T04:18:51.574Z,99779.13
2023-02-08T04:21:19.653Z,99775.63
2023-02-08T04:23:49.167Z,99760.84
2023-02-08T04:26:17.240Z,99789.19
2023-02-08T04:28:45.336Z,99798.53
2023-02-08T04:31:13.509Z,99800.91
2023-02-08T04:33:41.691Z,99794.78
2023-02-08T04:36:10.735Z,99799.13
2023-02-08T04:38:38.914Z,99787.00
2023-02-08T04:41:08.567Z,99797.88
2023-02-08T04:43:36.838Z,99790.41
2023-02-08T04:46:05.352Z,99787.88
2023-02-08T04:48:33.552Z,99782.38
2023-02-08T04:51:01.785Z,99774.81
2023-02-08T04:53:29.998Z,99777.47
2023-02-08T04:55:58.122Z,99782.63
2023-02-08T04:58:27.619Z,99777.75
2023-02-08T05:00:55.788Z,99784.94
2023-02-08T05:03:24.110Z,99780.06
2023-02-08T05:05:58.734Z,99778.75
2023-02-08T05:08:27.584Z,99780.94
2023-02-08T05:10:56.128Z,99777.94
2023-02-08T05:13:24.315Z,99780.28
2023-02-08T05:15:54.183Z,99778.16
2023-02-08T05:18:22.428Z,99780.69
2023-02-08T05:20:56.143Z,99781.22
2023-02-08T05:23:24.301Z,99786.84
2023-02-08T05:25:52.816Z,99784.75
2023-02-08T05:28:21.184Z,99766.91
2023-02-08T05:30:49.518Z,99778.88
2023-02-08T05:33:19.685Z,99780.97
2023-02-08T05:35:47.815Z,99773.66
2023-02-08T05:38:16.138Z,99773.06
2023-02-08T05:40:44.233Z,99769.88
2023-02-08T05:43:12.367Z,99778.91
2023-02-08T05:45:40.494Z,99776.56
2023-02-08T05:48:08.710Z,99771.78
2023-02-08T05:50:38.329Z,99773.78
2023-02-08T05:53:06.573Z,99787.78
2023-02-08T05:55:34.788Z,99792.31
2023-02-08T05:58:02.993Z,99800.31
2023-02-08T06:00:31.096Z,99802.28
2023-02-08T06:02:59.681Z,99807.44
2023-02-08T06:05:27.772Z,99811.81
2023-02-08T06:07:57.499Z,99815.47
2023-02-08T06:10:25.686Z,99807.66
2023-02-08T06:12:53.903Z,99831.34
2023-02-08T06:15:22.064Z,99840.13
2023-02-08T06:17:50.259Z,99838.75
2023-02-08T06:20:18.829Z,99843.16
2023-02-08T06:22:46.980Z,99852.91
2023-02-08T06:25:16.676Z,99853.84
2023-02-08T06:27:44.806Z,99865.28
2023-02-08T06:30:13.615Z,99865.28
2023-02-08T06:32:41.741Z,99870.66
2023-02-08T06:35:10.313Z,99880.63
2023-02-08T06:37:38.848Z,99883.84
2023-02-08T06:40:07.943Z,99885.13
2023-02-08T06:42:37.521Z,99883.66
2023-02-08T06:45:08.375Z,99887.19
2023-02-08T06:47:36.772Z,99881.75
2023-02-08T06:50:05.233Z,99888.75
2023-02-08T06:52:33.362Z,99897.63
2023-02-08T06:55:01.530Z,99890.94
2023-02-08T06:57:29.727Z,99898.09
2023-02-08T06:59:59.220Z,99893.91
2023-02-08T07:02:27.813Z,99879.94
2023-02-08T07:04:55.986Z,99888.91
2023-02-08T07:07:24.159Z,99886.56
2023-02-08T07:09:52.315Z,99885.66
2023-02-08T07:12:20.416Z,99874.38
2023-02-08T07:14:48.537Z,99887.44
2023-02-08T07:17:18.064Z,99884.94
2023-02-08T07:19:46.205Z,99889.28
2023-02-08T07:22:14.318Z,99888.97
2023-02-08T07:24:43.024Z,99884.00
2023-02-08T07:27:13.148Z,99884.25
2023-02-08T07:29:41.593Z,99875.06
2023-02-08T07:32:11.604Z,99883.28
2023-02-08T07:34:41.537Z,99873.75
2023-02-08T07:37:09.682Z,99884.38
2023-02-08T07:39:37.898Z,99885.53
2023-02-08T07:42:07.412Z,99874.19
2023-02-08T07:44:42.544Z,99876.75
2023-02-08T07:47:10.913Z,99882.50
2023-02-08T07:49:39.049Z,99887.69
2023-02-08T07:52:08.607Z,99885.25
2023-02-08T07:54:36.733Z,99892.63
2023-02-08T07:57:05.062Z,99894.59
2023-02-08T07:59:33.234Z,99890.47
2023-02-08T08:02:01.419Z,99896.94
2023-02-08T08:04:29.570Z,99909.78
2023-02-08T08:06:57.708Z,99915.75
2023-02-08T08:09:27.321Z,99917.03
2023-02-08T08:11:55.470Z,99918.00
2023-02-08T08:14:23.662Z,99907.53
2023-02-08T08:16:51.804Z,99898.66
2023-02-08T08:19:19.951Z,99904.13
2023-02-08T08:21:48.064Z,99887.22
2023-02-08T08:24:16.216Z,99889.81
2023-02-08T08:26:45.737Z,99900.72
2023-02-08T08:29:14.400Z,99910.38
2023-02-08T08:31:44.380Z,99904.28
2023-02-08T08:34:12.605Z,99919.09
2023-02-08T08:36:40.749Z,99917.78
2023-02-08T08:39:08.968Z,99914.63
2023-02-08T08:41:37.356Z,99933.34
2023-02-08T08:44:07.251Z,99931.63
2023-02-08T08:46:35.462Z,99922.63
2023-02-08T08:49:03.619Z,99925.19
2023-02-08T08:51:35.291Z,99940.81
2023-02-08T08:54:03.697Z,99954.50
2023-02-08T08:56:31.845Z,99947.16
2023-02-08T08:59:00.577Z,99955.03
2023-02-08T09:01:31.425Z,99957.38
2023-02-08T09:04:00.492Z,99929.78
2023-02-08T09:06:28.721Z,99922.50
2023-02-08T09:08:56.853Z,99915.91
2023-02-08T09:11:25.191Z,99928.63
2023-02-08T09:13:56.163Z,99924.81
2023-02-08T09:16:25.722Z,99915.50
2023-02-08T09:18:55.352Z,99915.03
2023-02-08T09:21:25.924Z,99919.69
2023-02-08T09:23:54.119Z,99920.53
2023-02-08T09:26:22.972Z,99916.06
2023-02-08T09:28:51.089Z,99918.78
2023-02-08T09:31:21.845Z,99924.34
2023-02-08T09:33:51.166Z,99915.03
2023-02-08T09:36:21.604Z,99915.56
2023-02-08T09:38:50.873Z,99926.19
2023-02-08T09:41:34.246Z,99928.91
2023-02-08T09:44:16.974Z,99933.53
2023-02-08T09:46:53.410Z,99941.19
2023-02-08T09:49:27.683Z,99941.56
2023-02-08T09:52:01.807Z,99949.59
2023-02-08T09:54:34.534Z,99954.22
2023-02-08T09:57:07.221Z,99950.22
2023-02-08T09:59:36.592Z,99946.31
2023-02-08T10:02:18.728Z,99952.41
2023-02-08T10:04:58.052Z,99936.78
2023-02-08T10:07:28.770Z,99941.59
2023-02-08T10:10:00.417Z,99945.63
2023-02-08T10:12:39.269Z,99940.44
2023-02-08T10:15:22.323Z,99940.56
2023-02-08T10:18:02.307Z,99941.72
2023-02-08T10:20:41.700Z,99939.16
2023-02-08T10:23:24.731Z,99936.38
2023-02-08T10:26:07.883Z,99934.13
2023-02-08T10:28:50.854Z,99933.38
2023-02-08T10:31:30.697Z,99927.41
2023-02-08T10:34:03.639Z,99933.63
2023-02-08T10:36:36.412Z,99930.78
2023-02-08T10:39:16.202Z,99921.09
2023-02-08T10:41:45.825Z,99925.22
2023-02-08T10:44:28.162Z,99930.91
2023-02-08T10:47:10.015Z,99936.94
2023-02-08T10:49:44.129Z,99934.22
2023-02-08T10:52:12.439Z,99926.47
2023-02-08T10:54:42.073Z,99922.28
2023-02-08T10:57:16.877Z,99933.47
2023-02-08T10:59:50.967Z,99923.81
2023-02-08T11:02:23.878Z,99915.78
2023-02-08T11:05:00.186Z,99914.28
2023-02-08T11:07:28.489Z,99918.75
2023-02-08T11:10:15.935Z,99912.53
2023-02-08T11:12:54.755Z,99909.03
2023-02-08T11:15:26.347Z,99914.88
2023-02-08T11:17:58.121Z,99908.00
2023-02-08T11:20:32.585Z,99906.66
2023-02-08T11:23:01.048Z,99900.47
2023-02-08T11:25:37.239Z,99904.78
2023-02-08T11:28:06.671Z,99899.00
2023-02-08T11:30:34.890Z,99898.72
2023-02-08T11:33:19.598Z,99903.63
2023-02-08T11:36:08.392Z,99896.69
2023-02-08T11:38:38.054Z,99884.00
2023-02-08T11:41:19.002Z,99888.75
2023-02-08T11:43:58.463Z,99893.78
2023-02-08T11:46:28.875Z,99885.34
2023-02-08T11:48:57.722Z,99884.56
2023-02-08T11:51:30.499Z,99893.97
2023-02-08T11:54:01.669Z,99892.44
2023-02-08T11:56:33.326Z,99883.94
2023-02-08T11:59:18.315Z,99890.94
2023-02-08T12:01:46.769Z,99890.50
2023-02-08T12:04:17.422Z,99885.25
2023-02-08T12:07:10.240Z,99874.91
2023-02-08T12:10:12.036Z,99867.41
2023-02-08T12:12:58.246Z,99866.59
2023-02-08T12:15:51.342Z,99873.34
2023-02-08T12:18:45.551Z,99863.91
2023-02-08T12:21:19.251Z,99863.50
2023-02-08T12:23:54.316Z,99867.69
2023-02-08T12:26:35.469Z,99866.38
2023-02-08T12:29:38.432Z,99860.94
2023-02-08T12:32:32.862Z,99858.22
2023-02-08T12:35:43.295Z,99856.44
2023-02-08T12:38:44.787Z,99855.88
2023-02-08T12:41:22.634Z,99852.47
2023-02-08T12:44:02.348Z,99848.16
2023-02-08T12:47:00.846Z,99848.88
2023-02-08T12:49:46.907Z,99840.38
2023-02-08T12:52:26.280Z,99833.56
2023-02-08T12:54:58.972Z,99831.97
2023-02-08T12:57:31.897Z,99829.19
2023-02-08T13:00:04.340Z,99825.09
2023-02-08T13:02:44.791Z,99826.72
2023-02-08T13:05:18.887Z,99838.06
2023-02-08T13:07:50.522Z,99829.28
2023-02-08T13:10:27.936Z,99824.72
2023-02-08T13:12:59.372Z,99817.16
2023-02-08T13:15:36.892Z,99808.38
2023-02-08T13:18:15.733Z,99814.41
2023-02-08T13:20:47.191Z,99811.19
2023-02-08T13:23:22.285Z,99808.53
2023-02-08T13:25:53.415Z,99813.84
2023-02-08T13:28:24.050Z,99809.63
2023-02-08T13:30:59.875Z,99793.41
2023-02-08T13:33:36.912Z,99793.50
2023-02-08T13:36:06.347Z,99797.03
2023-02-08T13:38:37.486Z,99805.72
2023-02-08T13:41:09.620Z,99804.88
2023-02-08T13:43:42.962Z,99802.28
2023-02-08T13:46:12.614Z,99804.88
2023-02-08T13:48:50.895Z,99797.91
2023-02-08T13:52:02.324Z,99808.41
2023-02-08T13:54:30.665Z,99809.25
2023-02-08T13:56:58.918Z,99806.63
2023-02-08T13:59:34.213Z,99806.63
2023-02-08T14:02:27.059Z,99804.00
2023-02-08T14:05:20.588Z,99807.50
2023-02-08T14:07:49.995Z,99807.47
2023-02-08T14:10:37.540Z,99809.19
2023-02-08T14:13:18.538Z,99802.25
2023-02-08T14:15:47.898Z,99809.28
2023-02-08T14:18:25.574Z,99811.00
2023-02-08T14:21:03.238Z,99802.25
2023-02-08T14:23:33.642Z,99799.66
2023-02-08T14:26:10.643Z,99804.00
2023-02-08T14:28:44.001Z,99806.63
2023-02-08T14:31:14.187Z,99805.72
2023-02-08T14:33:45.051Z,99797.78
2023-02-08T14:36:28.866Z,99804.59
2023-02-08T14:39:24.518Z,99804.34
2023-02-08T14:41:57.299Z,99806.13
2023-02-08T14:45:03.605Z,99800.13
2023-02-08T14:48:17.702Z,99801.88
2023-02-08T14:51:16.626Z,99802.72
2023-02-08T14:53:50.766Z,99794.16
2023-02-08T14:56:23.785Z,99795.72
2023-02-08T14:58:56.431Z,99790.56
2023-02-08T15:01:34.848Z,99794.03
2023-02-08T15:04:04.077Z,99785.31
2023-02-08T15:06:59.714Z,99784.34
2023-02-08T15:09:33.602Z,99793.78
2023-02-08T15:12:05.255Z,99785.63
2023-02-08T15:14:36.878Z,99779.44
2023-02-08T15:17:05.293Z,99777.44
2023-02-08T15:19:37.867Z,99782.44
2023-02-08T15:22:20.497Z,99780.03
2023-02-08T15:24:55.182Z,99785.63
2023-02-08T15:27:25.324Z,99795.03
2023-02-08T15:29:53.845Z,99794.69
2023-02-08T15:32:26.649Z,99794.22
2023-02-08T15:34:56.726Z,99791.31
2023-02-08T15:37:25.824Z,99807.72
2023-02-08T15:39:58.038Z,99806.03
2023-02-08T15:42:28.937Z,99804.94
2023-02-08T15:44:57.689Z,99815.75
2023-02-08T15:47:29.763Z,99793.72
2023-02-08T15:49:59.744Z,99818.28
2023-02-08T15:52:36.257Z,99820.63
2023-02-08T15:55:08.157Z,99824.69
2023-02-08T15:57:40.651Z,99821.84
2023-02-08T16:00:16.849Z,99825.28
2023-02-08T16:02:46.046Z,99827.72
2023-02-08T16:05:22.000Z,99829.44
2023-02-08T16:07:51.870Z,99824.38
2023-02-08T16:10:31.407Z,99827.84
2023-02-08T16:13:02.189Z,99826.97
2023-02-08T16:15:38.832Z,99825.22
2023-02-08T16:18:07.761Z,99831.34
2023-02-08T16:20:37.270Z,99837.44
2023-02-08T16:23:24.743Z,99833.03
2023-02-08T16:25:54.623Z,99839.84
2023-02-08T16:28:28.052Z,99838.97
2023-02-08T16:30:58.111Z,99835.47
2023-02-08T16:33:27.094Z,99844.22
2023-02-08T16:36:01.916Z,99836.31
2023-02-08T16:38:32.199Z,99835.53
2023-02-08T16:41:13.163Z,99829.16
2023-02-08T16:43:44.065Z,99838.75
2023-02-08T16:46:25.513Z,99832.66
2023-02-08T16:48:55.733Z,99830.88
2023-02-08T16:51:26.799Z,99833.44
2023-02-08T16:53:57.662Z,99851.59
2023-02-08T16:56:27.975Z,99837.72
2023-02-08T16:58:56.574Z,99839.34
2023-02-08T17:01:25.564Z,99846.31
2023-02-08T17:03:54.844Z,99853.13
2023-02-08T17:06:30.048Z,99856.59
2023-02-08T17:08:59.191Z,99853.03
2023-02-08T17:11:30.706Z,99856.59
2023-02-08T17:14:00.751Z,99852.28
2023-02-08T17:16:32.515Z,99855.78
2023-02-08T17:19:01.916Z,99849.81
2023-02-08T17:21:31.345Z,99865.47
2023-02-08T17:24:00.251Z,99845.44
2023-02-08T17:26:33.217Z,99848.16
2023-02-08T17:29:02.157Z,99858.56
2023-02-08T17:31:31.254Z,99861.91
2023-02-08T17:34:05.161Z,99871.38
2023-02-08T17:36:35.652Z,99871.38
2023-02-08T17:39:08.463Z,99864.41
2023-02-08T17:41:41.002Z,99860.94
2023-02-08T17:44:11.026Z,99868.63
2023-02-08T17:46:40.028Z,99868.59
2023-02-08T17:49:09.326Z,99861.66
2023-02-08T17:51:38.124Z,99856.34
2023-02-08T17:54:07.012Z,99857.19
2023-02-08T17:56:37.390Z,99858.00
2023-02-08T17:59:08.177Z,99860.53
2023-02-08T18:01:37.347Z,99856.25
2023-02-08T18:04:09.587Z,99850.25
2023-02-08T18:06:39.109Z,99848.44
2023-02-08T18:09:08.318Z,99843.97
2023-02-08T18:11:36.797Z,99848.25
2023-02-08T18:14:07.167Z,99856.13
2023-02-08T18:16:37.029Z,99861.34
2023-02-08T18:19:07.595Z,99875.13
2023-02-08T18:21:36.935Z,99873.47
2023-02-08T18:24:07.944Z,99865.66
2023-02-08T18:26:37.897Z,99864.94
2023-02-08T18:29:10.366Z,99863.00
2023-02-08T18:31:41.138Z,99866.44
2023-02-08T18:34:10.059Z,99876.78
2023-02-08T18:36:39.518Z,99869.81
2023-02-08T18:39:09.003Z,99863.63
2023-02-08T18:41:38.545Z,99871.63
2023-02-08T18:44:12.536Z,99863.88
2023-02-08T18:46:42.027Z,99868.28
2023-02-08T18:49:13.533Z,99868.34
2023-02-08T18:51:44.939Z,99866.53
2023-02-08T18:54:15.742Z,99863.72
2023-02-08T18:56:47.128Z,99875.00
2023-02-08T18:59:20.684Z,99867.22
2023-02-08T19:01:50.130Z,99868.94
2023-02-08T19:04:22.021Z,99862.88
2023-02-08T19:06:51.756Z,99860.13
2023-02-08T19:09:21.784Z,99851.66
2023-02-08T19:11:52.314Z,99855.03
2023-02-08T19:14:23.419Z,99851.44
2023-02-08T19:16:53.267Z,99852.28
2023-02-08T19:19:23.649Z,99854.75
2023-02-08T19:21:53.157Z,99859.03
2023-02-08T19:24:22.504Z,99869.47
2023-02-08T19:26:53.563Z,99862.41
2023-02-08T19:29:24.941Z,99858.88
2023-02-08T19:31:57.843Z,99857.28
2023-02-08T19:34:30.320Z,99859.09
2023-02-08T19:37:00.108Z,99864.38
2023-02-08T19:39:29.795Z,99857.47
2023-02-08T19:42:00.363Z,99866.06
2023-02-08T19:44:32.076Z,99865.13
2023-02-08T19:47:01.896Z,99865.00
2023-02-08T19:49:32.841Z,99869.22
2023-02-08T19:52:05.415Z,99868.47
2023-02-08T19:54:35.045Z,99869.19
2023-02-08T19:57:04.931Z,99865.69
2023-02-08T19:59:40.062Z,99864.06
2023-02-08T20:02:15.840Z,99868.50
2023-02-08T20:04:47.111Z,99868.41
2023-02-08T20:07:16.853Z,99866.88
2023-02-08T20:09:46.995Z,99866.88
2023-02-08T20:12:16.832Z,99872.81
2023-02-08T20:14:48.576Z,99872.03
2023-02-08T20:17:18.691Z,99869.34
2023-02-08T20:19:47.818Z,99876.97
2023-02-08T20:22:21.071Z,99870.91
2023-02-08T20:24:50.353Z,99875.22
2023-02-08T20:27:26.080Z,99876.16
2023-02-08T20:29:59.892Z,99876.97
2023-02-08T20:32:32.152Z,99874.25
2023-02-08T20:35:01.146Z,99877.84
2023-02-08T20:37:31.465Z,99875.09
2023-02-08T20:40:01.647Z,99872.66
2023-02-08T20:42:31.453Z,99878.91
2023-02-08T20:45:04.810Z,99877.78
2023-02-08T20:47:45.993Z,99881.09
2023-02-08T20:50:19.601Z,99885.47
2023-02-08T20:52:49.968Z,99876.69
2023-02-08T20:55:19.878Z,99876.69
2023-02-08T20:57:49.014Z,99882.91
2023-02-08T21:00:24.205Z,99879.25
2023-02-08T21:02:56.886Z,99883.88
2023-02-08T21:05:26.493Z,99892.47
2023-02-08T21:07:55.868Z,99884.63
2023-02-08T21:10:25.240Z,99886.31
2023-02-08T21:12:55.176Z,99884.63
2023-02-08T21:15:25.921Z,99882.78
2023-02-08T21:17:54.470Z,99885.22
2023-02-08T21:20:22.947Z,99886.84
2023-02-08T21:22:52.040Z,99880.09
2023-02-08T21:25:20.645Z,99880.84
2023-02-08T21:27:48.803Z,99884.28
2023-02-08T21:30:19.846Z,99885.25
2023-02-08T21:32:50.614Z,99880.97
2023-02-08T21:35:18.894Z,99882.78
2023-02-08T21:37:47.069Z,99882.78
2023-02-08T21:40:15.304Z,99875.25
2023-02-08T21:42:43.531Z,99877.09
2023-02-08T21:45:12.336Z,99880.13
2023-02-08T21:47:41.798Z,99877.56
2023-02-08T21:50:29.038Z,99875.56
2023-02-08T21:53:14.350Z,99880.75
2023-02-08T21:55:46.560Z,99868.69
2023-02-08T21:58:15.140Z,99874.63
2023-02-08T22:00:43.546Z,99869.31
2023-02-08T22:03:11.821Z,99867.34
2023-02-08T22:05:58.812Z,99875.03
2023-02-08T22:08:27.047Z,99867.31
2023-02-08T22:10:58.296Z,99874.25
2023-02-08T22:13:26.925Z,99876.75
2023-02-08T22:15:55.119Z,99874.94
2023-02-08T22:18:23.323Z,99873.09
2023-02-08T22:20:54.304Z,99874.78
2023-02-08T22:23:22.605Z,99871.19
2023-02-08T22:25:50.696Z,99872.88
2023-02-08T22:28:18.834Z,99879.78
2023-02-08T22:30:49.220Z,99874.72
2023-02-08T22:33:17.594Z,99874.78
2023-02-08T22:35:45.690Z,99869.66
2023-02-08T22:38:15.211Z,99872.25
2023-02-08T22:40:43.709Z,99869.78
2023-02-08T22:43:12.066Z,99870.00
2023-02-08T22:45:40.195Z,99868.22
2023-02-08T22:48:08.299Z,99872.34
2023-02-08T22:50:38.256Z,99871.50
2023-02-08T22:53:06.355Z,99864.31
2023-02-08T22:55:35.887Z,99866.13
2023-02-08T22:58:04.015Z,99872.13
2023-02-08T23:00:32.192Z,99871.50
2023-02-08T23:03:00.375Z,99872.72
2023-02-08T23:05:28.581Z,99873.31
2023-02-08T23:07:56.692Z,99868.88
2023-02-08T23:10:24.754Z,99869.59
2023-02-08T23:12:54.279Z,99864.25
2023-02-08T23:15:22.617Z,99860.75
2023-02-08T23:17:50.791Z,99864.19
2023-02-08T23:20:19.286Z,99859.03
2023-02-08T23:22:47.436Z,99859.88
2023-02-08T23:25:15.892Z,99856.97
2023-02-08T23:27:44.074Z,99840.50
2023-02-08T23:30:14.365Z,99853.47
2023-02-08T23:32:42.692Z,99855.03
2023-02-08T23:35:11.477Z,99849.06
2023-02-08T23:37:39.922Z,99850.00
2023-02-08T23:40:09.297Z,99848.28
2023-02-08T23:42:37.431Z,99840.47
2023-02-08T23:45:06.493Z,99845.81
2023-02-08T23:47:36.556Z,99843.00
2023-02-08T23:50:04.849Z,99840.53
2023-02-08T23:52:33.171Z,99832.97
2023-02-08T23:55:01.295Z,99831.16
2023-02-08T23:57:33.765Z,99837.16
